createdAt,value
2023-05-02T00:01:32.455Z,4.70
2023-05-02T00:03:59.671Z,4.70
2023-05-02T00:06:27.663Z,4.70
2023-05-02T00:08:54.810Z,4.60
2023-05-02T00:11:23.074Z,4.60
2023-05-02T00:13:50.362Z,4.70
2023-05-02T00:16:18.349Z,4.70
2023-05-02T00:18:45.646Z,4.70
2023-05-02T00:21:13.328Z,4.60
2023-05-02T00:23:40.611Z,4.60
2023-05-02T00:26:11.147Z,4.50
2023-05-02T00:28:38.308Z,4.50
2023-05-02T00:31:05.596Z,4.40
2023-05-02T00:33:32.798Z,4.40
2023-05-02T00:35:59.875Z,4.50
2023-05-02T00:38:27.016Z,4.50
2023-05-02T00:40:54.237Z,4.40
2023-05-02T00:43:21.386Z,4.40
2023-05-02T00:45:48.919Z,4.30
2023-05-02T00:48:18.100Z,4.50
2023-05-02T00:50:45.182Z,4.50
2023-05-02T00:53:12.276Z,4.40
2023-05-02T00:55:40.140Z,4.30
2023-05-02T00:58:12.118Z,4.30
2023-05-02T01:01:00.381Z,4.20
2023-05-02T01:03:58.757Z,4.20
2023-05-02T01:06:43.255Z,4.20
2023-05-02T01:09:31.863Z,4.20
2023-05-02T01:12:06.187Z,4.20
2023-05-02T01:14:47.023Z,4.10
2023-05-02T01:17:17.388Z,4.30
2023-05-02T01:19:51.339Z,4.30
2023-05-02T01:22:20.216Z,4.20
2023-05-02T01:25:02.782Z,4.20
2023-05-02T01:27:49.292Z,4.10
2023-05-02T01:30:19.085Z,4.10
2023-05-02T01:32:48.673Z,4.20
2023-05-02T01:35:18.296Z,4.10
2023-05-02T01:37:47.212Z,4.10
2023-05-02T01:40:20.737Z,4.10
2023-05-02T01:42:50.311Z,4.10
2023-05-02T01:45:19.124Z,4.00
2023-05-02T01:47:47.098Z,4.10
2023-05-02T01:50:19.338Z,3.90
2023-05-02T01:52:49.803Z,4.00
2023-05-02T01:55:18.461Z,4.00
2023-05-02T01:57:47.931Z,4.10
2023-05-02T02:00:18.690Z,4.10
2023-05-02T02:02:47.989Z,4.10
2023-05-02T02:05:16.169Z,4.20
2023-05-02T02:07:44.274Z,4.20
2023-05-02T02:10:11.692Z,4.20
2023-05-02T02:13:08.079Z,4.20
2023-05-02T02:15:38.231Z,4.20
2023-05-02T02:18:21.824Z,4.30
2023-05-02T02:20:51.643Z,4.40
2023-05-02T02:23:21.136Z,4.40
2023-05-02T02:25:51.131Z,4.40
2023-05-02T02:28:18.345Z,4.50
2023-05-02T02:30:45.671Z,4.50
2023-05-02T02:33:12.901Z,4.60
2023-05-02T02:35:48.440Z,4.60
2023-05-02T02:38:27.896Z,4.70
2023-05-02T02:41:12.509Z,4.80
2023-05-02T02:44:00.160Z,5.00
2023-05-02T02:46:39.538Z,5.00
2023-05-02T02:49:25.752Z,5.00
2023-05-02T02:52:11.247Z,5.00
2023-05-02T02:55:13.489Z,5.20
2023-05-02T02:58:02.632Z,5.20
2023-05-02T03:00:30.220Z,5.20
2023-05-02T03:02:58.086Z,5.20
2023-05-02T03:05:25.687Z,5.20
2023-05-02T03:07:53.051Z,5.40
2023-05-02T03:10:22.719Z,5.20
2023-05-02T03:12:49.894Z,5.30
2023-05-02T03:15:46.681Z,5.30
2023-05-02T03:18:13.876Z,5.30
2023-05-02T03:20:42.221Z,5.40
2023-05-02T03:23:09.449Z,5.50
2023-05-02T03:25:37.080Z,5.50
2023-05-02T03:28:04.384Z,5.70
2023-05-02T03:30:31.667Z,5.60
2023-05-02T03:33:00.634Z,5.80
2023-05-02T03:35:27.769Z,5.60
2023-05-02T03:37:54.866Z,5.70
2023-05-02T03:40:22.113Z,5.80
2023-05-02T03:42:49.522Z,5.70
2023-05-02T03:45:16.755Z,5.80
2023-05-02T03:47:43.845Z,5.90
2023-05-02T03:50:11.335Z,6.10
2023-05-02T03:52:38.449Z,6.30
2023-05-02T03:55:08.007Z,6.40
2023-05-02T03:57:35.177Z,6.40
2023-05-02T04:00:02.735Z,6.50
2023-05-02T04:02:53.294Z,6.40
2023-05-02T04:05:20.662Z,6.50
2023-05-02T04:07:47.822Z,6.60
2023-05-02T04:10:18.074Z,6.60
2023-05-02T04:12:45.734Z,6.60
2023-05-02T04:15:13.177Z,6.70
2023-05-02T04:17:40.401Z,7.00
2023-05-02T04:20:08.338Z,7.10
2023-05-02T04:22:35.826Z,7.30
2023-05-02T04:25:02.920Z,7.40
2023-05-02T04:27:31.595Z,7.40
2023-05-02T04:29:58.970Z,7.60
2023-05-02T04:32:27.190Z,7.90
2023-05-02T04:34:54.379Z,8.10
2023-05-02T04:37:21.488Z,8.30
2023-05-02T04:39:49.051Z,7.90
2023-05-02T04:42:16.334Z,8.30
2023-05-02T04:44:43.466Z,8.20
2023-05-02T04:47:10.586Z,8.40
2023-05-02T04:49:37.821Z,8.80
2023-05-02T04:52:05.130Z,8.40
2023-05-02T04:54:34.722Z,8.20
2023-05-02T04:57:03.687Z,8.20
2023-05-02T04:59:30.998Z,8.50
2023-05-02T05:01:58.215Z,8.90
2023-05-02T05:04:25.383Z,8.90
2023-05-02T05:06:52.485Z,8.90
2023-05-02T05:09:19.676Z,8.70
2023-05-02T05:11:46.778Z,9.20
2023-05-02T05:14:13.913Z,9.40
2023-05-02T05:16:41.053Z,9.60
2023-05-02T05:19:08.329Z,9.60
2023-05-02T05:21:35.494Z,9.80
2023-05-02T05:24:02.756Z,10.20
2023-05-02T05:26:29.888Z,10.00
2023-05-02T05:28:57.014Z,10.40
2023-05-02T05:31:24.543Z,9.90
2023-05-02T05:33:51.700Z,10.20
2023-05-02T05:36:19.150Z,10.20
2023-05-02T05:38:46.929Z,10.40
2023-05-02T05:41:14.179Z,10.70
2023-05-02T05:43:41.369Z,10.60
2023-05-02T05:46:08.485Z,10.80
2023-05-02T05:48:35.699Z,10.80
2023-05-02T05:51:06.548Z,10.70
2023-05-02T05:53:34.322Z,11.00
2023-05-02T05:56:12.362Z,11.20
2023-05-02T05:58:40.555Z,11.20
2023-05-02T06:01:08.710Z,11.00
2023-05-02T06:03:36.361Z,11.20
2023-05-02T06:06:03.847Z,11.30
2023-05-02T06:08:31.028Z,11.70
2023-05-02T06:10:58.221Z,11.20
2023-05-02T06:13:26.311Z,11.30
2023-05-02T06:15:53.607Z,11.20
2023-05-02T06:18:20.773Z,11.90
2023-05-02T06:21:06.565Z,11.80
2023-05-02T06:23:33.778Z,11.90
2023-05-02T06:26:02.029Z,12.00
2023-05-02T06:28:29.903Z,12.10
2023-05-02T06:31:02.154Z,12.20
2023-05-02T06:33:30.447Z,12.60
2023-05-02T06:35:59.187Z,12.60
2023-05-02T06:38:27.904Z,12.80
2023-05-02T06:40:55.192Z,12.50
2023-05-02T06:43:22.376Z,12.20
2023-05-02T06:45:52.420Z,12.30
2023-05-02T06:48:19.597Z,13.20
2023-05-02T06:50:46.738Z,12.60
2023-05-02T06:53:14.264Z,12.90
2023-05-02T06:55:41.514Z,12.60
2023-05-02T06:58:08.797Z,13.50
2023-05-02T07:00:35.998Z,13.70
2023-05-02T07:03:03.374Z,12.40
2023-05-02T07:05:31.279Z,13.10
2023-05-02T07:07:58.649Z,13.50
2023-05-02T07:10:26.053Z,13.90
2023-05-02T07:12:56.175Z,14.00
2023-05-02T07:15:23.357Z,14.30
2023-05-02T07:17:50.591Z,14.00
2023-05-02T07:20:18.376Z,14.30
2023-05-02T07:22:45.640Z,14.00
2023-05-02T07:25:31.327Z,14.00
2023-05-02T07:27:58.436Z,14.50
2023-05-02T07:30:44.109Z,14.40
2023-05-02T07:33:11.239Z,14.30
2023-05-02T07:35:38.443Z,14.30
2023-05-02T07:38:05.933Z,13.90
2023-05-02T07:40:33.748Z,14.50
2023-05-02T07:43:03.853Z,13.90
2023-05-02T07:45:31.015Z,13.90
2023-05-02T07:47:58.201Z,14.90
2023-05-02T07:50:26.010Z,14.10
2023-05-02T07:52:54.766Z,14.60
2023-05-02T07:55:22.202Z,15.30
2023-05-02T07:57:49.340Z,15.50
2023-05-02T08:00:17.063Z,14.50
2023-05-02T08:02:45.413Z,14.20
2023-05-02T08:05:12.733Z,14.80
2023-05-02T08:07:39.923Z,15.40
2023-05-02T08:10:08.035Z,15.50
2023-05-02T08:12:40.464Z,16.40
2023-05-02T08:15:10.510Z,16.00
2023-05-02T08:17:37.965Z,16.30
2023-05-02T08:20:05.753Z,15.80
2023-05-02T08:22:34.532Z,14.80
2023-05-02T08:25:01.687Z,15.30
2023-05-02T08:27:29.319Z,15.80
2023-05-02T08:29:58.499Z,16.30
2023-05-02T08:32:26.946Z,16.10
2023-05-02T08:34:57.471Z,15.70
2023-05-02T08:37:24.602Z,16.60
2023-05-02T08:39:51.717Z,17.00
2023-05-02T08:42:20.882Z,17.20
2023-05-02T08:44:49.391Z,17.20
2023-05-02T08:47:18.802Z,17.80
2023-05-02T08:49:46.766Z,17.80
2023-05-02T08:52:15.909Z,17.70
2023-05-02T08:54:44.911Z,20.30
2023-05-02T08:57:12.004Z,22.30
2023-05-02T08:59:39.029Z,22.10
2023-05-02T09:02:19.796Z,22.20
2023-05-02T09:04:53.148Z,22.20
2023-05-02T09:07:20.287Z,22.20
2023-05-02T09:09:47.518Z,22.90
2023-05-02T09:12:16.476Z,21.90
2023-05-02T09:14:45.203Z,20.60
2023-05-02T09:17:12.429Z,22.30
2023-05-02T09:19:39.672Z,21.90
2023-05-02T09:22:06.791Z,21.20
2023-05-02T09:24:34.589Z,21.30
2023-05-02T09:27:05.447Z,23.00
2023-05-02T09:29:39.083Z,25.20
2023-05-02T09:32:09.658Z,25.00
2023-05-02T09:34:39.095Z,20.10
2023-05-02T09:37:06.531Z,21.60
2023-05-02T09:39:33.743Z,23.40
2023-05-02T09:42:02.987Z,24.30
2023-05-02T09:44:37.893Z,23.20
2023-05-02T09:47:08.216Z,23.20
2023-05-02T09:49:46.272Z,23.00
2023-05-02T09:52:16.578Z,23.10
2023-05-02T09:54:44.379Z,21.70
2023-05-02T09:57:11.664Z,24.10
2023-05-02T09:59:52.927Z,23.30
2023-05-02T10:02:22.118Z,25.20
2023-05-02T10:04:51.620Z,24.20
2023-05-02T10:07:19.000Z,22.90
2023-05-02T10:09:48.298Z,24.10
2023-05-02T10:12:17.126Z,21.70
2023-05-02T10:14:54.242Z,22.90
2023-05-02T10:17:28.352Z,23.40
2023-05-02T10:20:04.466Z,23.10
2023-05-02T10:22:36.962Z,23.70
2023-05-02T10:25:04.892Z,25.00
2023-05-02T10:27:35.012Z,22.40
2023-05-02T10:30:04.789Z,22.20
2023-05-02T10:32:37.364Z,23.30
2023-05-02T10:35:06.451Z,23.80
2023-05-02T10:37:38.556Z,24.50
2023-05-02T10:40:11.542Z,25.00
2023-05-02T10:42:45.923Z,24.50
2023-05-02T10:45:32.456Z,25.80
2023-05-02T10:48:26.854Z,24.30
2023-05-02T10:51:00.661Z,24.70
2023-05-02T10:53:44.912Z,23.40
2023-05-02T10:56:14.152Z,19.70
2023-05-02T10:58:43.048Z,20.30
2023-05-02T11:01:26.654Z,20.90
2023-05-02T11:03:56.512Z,19.90
2023-05-02T11:06:28.073Z,22.00
2023-05-02T11:09:32.524Z,24.00
2023-05-02T11:12:02.015Z,24.90
2023-05-02T11:14:35.001Z,24.00
2023-05-02T11:17:04.458Z,25.10
2023-05-02T11:19:58.227Z,24.10
2023-05-02T11:22:27.284Z,25.90
2023-05-02T11:24:54.916Z,23.80
2023-05-02T11:27:33.977Z,23.90
2023-05-02T11:30:07.755Z,24.40
2023-05-02T11:32:48.793Z,23.50
2023-05-02T11:35:17.894Z,23.10
2023-05-02T11:37:57.878Z,24.80
2023-05-02T11:40:27.059Z,22.00
2023-05-02T11:42:55.494Z,24.30
2023-05-02T11:45:24.159Z,24.00
2023-05-02T11:47:51.651Z,23.40
2023-05-02T11:50:19.121Z,23.10
2023-05-02T11:52:46.806Z,22.70
2023-05-02T11:55:15.984Z,23.90
2023-05-02T11:57:43.308Z,24.70
2023-05-02T12:00:11.391Z,24.20
2023-05-02T12:02:44.055Z,23.70
2023-05-02T12:05:13.715Z,25.00
2023-05-02T12:07:45.323Z,23.40
2023-05-02T12:10:14.099Z,22.30
2023-05-02T12:12:43.578Z,22.90
2023-05-02T12:15:12.805Z,20.30
2023-05-02T12:17:42.853Z,21.90
2023-05-02T12:20:11.701Z,22.50
2023-05-02T12:22:39.393Z,24.80
2023-05-02T12:25:07.328Z,23.20
2023-05-02T12:27:35.353Z,21.00
2023-05-02T12:30:03.238Z,22.00
2023-05-02T12:32:34.730Z,23.60
2023-05-02T12:35:03.959Z,23.40
2023-05-02T12:37:34.159Z,21.80
2023-05-02T12:40:01.710Z,21.00
2023-05-02T12:42:34.612Z,23.10
2023-05-02T12:45:01.908Z,22.60
2023-05-02T12:47:45.699Z,23.00
2023-05-02T12:50:12.994Z,24.50
2023-05-02T12:52:47.463Z,23.00
2023-05-02T12:55:24.646Z,23.50
2023-05-02T12:57:59.963Z,23.30
2023-05-02T13:00:27.240Z,23.40
2023-05-02T13:02:54.496Z,23.10
2023-05-02T13:05:21.780Z,24.30
2023-05-02T13:07:49.090Z,22.10
2023-05-02T13:10:18.198Z,24.30
2023-05-02T13:12:47.211Z,23.10
2023-05-02T13:15:14.887Z,19.40
2023-05-02T13:17:42.553Z,19.60
2023-05-02T13:20:10.745Z,21.50
2023-05-02T13:22:37.981Z,21.90
2023-05-02T13:25:09.170Z,21.80
2023-05-02T13:27:36.399Z,23.00
2023-05-02T13:30:07.528Z,22.70
2023-05-02T13:32:36.231Z,20.00
2023-05-02T13:35:03.888Z,21.20
2023-05-02T13:37:31.508Z,22.50
2023-05-02T13:39:59.035Z,19.90
2023-05-02T13:42:26.339Z,19.90
2023-05-02T13:44:53.525Z,22.80
2023-05-02T13:47:21.690Z,24.20
2023-05-02T13:49:48.868Z,22.80
2023-05-02T13:52:16.514Z,21.70
2023-05-02T13:54:43.665Z,22.20
2023-05-02T13:57:10.793Z,22.00
2023-05-02T13:59:37.954Z,23.80
2023-05-02T14:02:05.245Z,23.80
2023-05-02T14:04:32.500Z,22.70
2023-05-02T14:06:59.689Z,24.20
2023-05-02T14:09:26.851Z,24.50
2023-05-02T14:11:53.991Z,23.60
2023-05-02T14:14:21.211Z,24.00
2023-05-02T14:16:51.567Z,24.50
2023-05-02T14:19:18.832Z,24.50
2023-05-02T14:21:46.234Z,23.90
2023-05-02T14:24:14.961Z,21.40
2023-05-02T14:26:42.155Z,19.30
2023-05-02T14:29:09.468Z,21.40
2023-05-02T14:31:36.938Z,21.70
2023-05-02T14:34:04.419Z,20.40
2023-05-02T14:36:32.692Z,18.10
2023-05-02T14:39:00.138Z,17.40
2023-05-02T14:41:27.766Z,17.50
2023-05-02T14:43:54.924Z,17.70
2023-05-02T14:46:22.200Z,17.70
2023-05-02T14:48:49.380Z,17.90
2023-05-02T14:51:16.998Z,17.50
2023-05-02T14:53:44.156Z,17.10
2023-05-02T14:56:16.129Z,16.90
2023-05-02T14:58:43.802Z,16.80
2023-05-02T15:01:21.204Z,16.60
2023-05-02T15:04:05.977Z,16.80
2023-05-02T15:06:35.250Z,16.70
2023-05-02T15:09:03.121Z,16.50
2023-05-02T15:11:30.499Z,16.30
2023-05-02T15:13:59.412Z,16.20
2023-05-02T15:16:27.538Z,16.50
2023-05-02T15:18:55.249Z,16.30
2023-05-02T15:21:23.048Z,16.60
2023-05-02T15:23:50.475Z,16.80
2023-05-02T15:26:17.857Z,16.70
2023-05-02T15:28:44.923Z,16.50
2023-05-02T15:31:12.298Z,16.20
2023-05-02T15:33:39.423Z,16.10
2023-05-02T15:36:06.907Z,16.00
2023-05-02T15:38:39.652Z,16.20
2023-05-02T15:41:08.233Z,16.10
2023-05-02T15:43:35.818Z,15.80
2023-05-02T15:46:03.169Z,15.80
2023-05-02T15:48:33.190Z,15.90
2023-05-02T15:51:01.942Z,15.90
2023-05-02T15:53:29.697Z,15.80
2023-05-02T15:55:57.305Z,15.80
2023-05-02T15:58:24.465Z,15.80
2023-05-02T16:00:52.681Z,15.70
2023-05-02T16:03:20.292Z,15.50
2023-05-02T16:05:47.722Z,15.60
2023-05-02T16:08:14.806Z,15.60
2023-05-02T16:10:43.599Z,15.50
2023-05-02T16:13:11.081Z,15.50
2023-05-02T16:15:39.202Z,15.50
2023-05-02T16:18:06.622Z,15.70
2023-05-02T16:20:36.743Z,15.70
2023-05-02T16:23:04.625Z,15.50
2023-05-02T16:25:32.024Z,15.70
2023-05-02T16:27:59.247Z,15.50
2023-05-02T16:30:28.222Z,15.40
2023-05-02T16:32:55.830Z,15.40
2023-05-02T16:35:23.030Z,15.20
2023-05-02T16:37:50.161Z,15.20
2023-05-02T16:40:17.741Z,15.20
2023-05-02T16:42:45.032Z,15.10
2023-05-02T16:45:12.318Z,15.20
2023-05-02T16:47:39.428Z,14.90
2023-05-02T16:50:08.104Z,15.20
2023-05-02T16:52:37.574Z,15.00
2023-05-02T16:55:05.524Z,14.90
2023-05-02T16:57:33.226Z,14.80
2023-05-02T17:00:00.990Z,14.80
2023-05-02T17:02:33.813Z,14.70
2023-05-02T17:05:01.214Z,14.60
2023-05-02T17:07:28.847Z,14.70
2023-05-02T17:09:56.600Z,14.50
2023-05-02T17:12:23.778Z,14.40
2023-05-02T17:14:51.855Z,14.00
2023-05-02T17:17:22.811Z,14.30
2023-05-02T17:19:51.487Z,14.40
2023-05-02T17:22:19.226Z,14.40
2023-05-02T17:24:49.579Z,14.20
2023-05-02T17:27:16.754Z,14.20
2023-05-02T17:29:43.883Z,14.20
2023-05-02T17:32:11.667Z,14.10
2023-05-02T17:34:38.978Z,13.90
2023-05-02T17:37:07.414Z,13.50
2023-05-02T17:39:34.702Z,13.30
2023-05-02T17:42:01.766Z,13.20
2023-05-02T17:44:31.578Z,13.20
2023-05-02T17:46:59.389Z,13.20
2023-05-02T17:49:26.737Z,13.10
2023-05-02T17:51:53.862Z,13.20
2023-05-02T17:54:21.209Z,13.20
2023-05-02T17:56:48.392Z,13.00
2023-05-02T17:59:16.031Z,12.90
2023-05-02T18:01:43.231Z,13.40
2023-05-02T18:04:12.991Z,13.50
2023-05-02T18:06:40.869Z,13.00
2023-05-02T18:09:09.007Z,12.70
2023-05-02T18:11:36.554Z,12.70
2023-05-02T18:14:06.165Z,12.50
2023-05-02T18:16:34.685Z,12.50
2023-05-02T18:19:02.078Z,12.40
2023-05-02T18:21:35.491Z,12.30
2023-05-02T18:24:02.825Z,12.30
2023-05-02T18:26:29.946Z,12.20
2023-05-02T18:28:57.483Z,12.20
2023-05-02T18:31:24.660Z,12.30
2023-05-02T18:33:53.906Z,12.60
2023-05-02T18:36:25.844Z,12.80
2023-05-02T18:38:53.936Z,12.30
2023-05-02T18:41:21.099Z,12.10
2023-05-02T18:43:48.343Z,12.30
2023-05-02T18:46:15.678Z,12.20
2023-05-02T18:48:43.561Z,12.20
2023-05-02T18:51:12.397Z,12.20
2023-05-02T18:53:39.613Z,12.20
2023-05-02T18:56:13.829Z,12.10
2023-05-02T18:58:42.198Z,12.10
2023-05-02T19:01:15.111Z,12.00
2023-05-02T19:03:43.789Z,12.10
2023-05-02T19:06:11.387Z,12.10
2023-05-02T19:08:57.156Z,12.00
2023-05-02T19:11:24.548Z,12.00
2023-05-02T19:13:51.881Z,11.80
2023-05-02T19:16:20.858Z,11.60
2023-05-02T19:18:51.780Z,11.90
2023-05-02T19:21:18.922Z,11.70
2023-05-02T19:23:46.409Z,11.80
2023-05-02T19:26:17.768Z,11.80
2023-05-02T19:28:45.471Z,11.80
2023-05-02T19:31:19.487Z,11.80
2023-05-02T19:33:52.407Z,11.60
2023-05-02T19:36:21.992Z,11.70
2023-05-02T19:38:51.343Z,11.60
2023-05-02T19:41:25.637Z,11.60
2023-05-02T19:44:00.241Z,11.60
2023-05-02T19:46:30.782Z,11.60
2023-05-02T19:49:00.929Z,11.50
2023-05-02T19:51:34.041Z,11.40
2023-05-02T19:54:02.037Z,11.40
2023-05-02T19:56:30.370Z,11.50
2023-05-02T19:58:59.077Z,11.40
2023-05-02T20:01:29.649Z,11.50
2023-05-02T20:04:01.932Z,11.40
2023-05-02T20:06:33.907Z,11.40
2023-05-02T20:09:04.567Z,11.40
2023-05-02T20:11:33.276Z,11.50
2023-05-02T20:14:04.259Z,11.40
2023-05-02T20:16:38.832Z,11.30
2023-05-02T20:19:07.668Z,11.10
2023-05-02T20:21:37.991Z,11.00
2023-05-02T20:24:09.581Z,11.10
2023-05-02T20:26:40.515Z,11.00
2023-05-02T20:29:22.311Z,10.90
2023-05-02T20:32:12.088Z,11.00
2023-05-02T20:34:50.448Z,10.90
2023-05-02T20:40:26.438Z,10.70
2023-05-02T20:43:08.996Z,10.70
2023-05-02T20:45:53.959Z,10.70
2023-05-02T20:48:24.282Z,10.60
2023-05-02T20:51:05.620Z,10.50
2023-05-02T20:53:33.672Z,10.50
2023-05-02T20:56:01.503Z,10.50
2023-05-02T20:58:42.975Z,10.40
2023-05-02T21:01:23.650Z,10.30
2023-05-02T21:03:57.493Z,10.40
2023-05-02T21:06:25.307Z,10.30
2023-05-02T21:08:55.604Z,10.30
2023-05-02T21:11:23.330Z,10.40
2023-05-02T21:13:51.328Z,10.40
2023-05-02T21:16:21.071Z,10.30
2023-05-02T21:18:56.110Z,10.20
2023-05-02T21:21:24.224Z,10.10
2023-05-02T21:23:55.912Z,10.40
2023-05-02T21:26:23.532Z,10.30
2023-05-02T21:28:52.574Z,10.20
2023-05-02T21:31:20.229Z,10.20
2023-05-02T21:33:48.123Z,10.10
2023-05-02T21:36:16.049Z,10.20
2023-05-02T21:38:43.676Z,10.00
2023-05-02T21:41:11.436Z,9.80
2023-05-02T21:43:40.580Z,10.00
2023-05-02T21:46:11.580Z,10.00
2023-05-02T21:48:39.717Z,10.10
2023-05-02T21:51:12.141Z,10.00
2023-05-02T21:53:40.592Z,10.00
2023-05-02T21:56:09.040Z,10.00
2023-05-02T21:58:36.885Z,9.80
2023-05-02T22:01:04.908Z,9.80
2023-05-02T22:03:33.975Z,9.80
2023-05-02T22:06:06.697Z,9.80
2023-05-02T22:08:34.550Z,9.70
2023-05-02T22:11:08.236Z,9.70
2023-05-02T22:13:37.049Z,9.70
2023-05-02T22:16:04.833Z,9.80
2023-05-02T22:18:32.400Z,9.80
2023-05-02T22:21:01.797Z,9.70
2023-05-02T22:23:31.294Z,9.60
2023-05-02T22:25:59.135Z,9.90
2023-05-02T22:28:27.226Z,9.70
2023-05-02T22:30:55.099Z,9.80
2023-05-02T22:33:22.723Z,9.90
2023-05-02T22:35:50.240Z,9.90
2023-05-02T22:38:19.824Z,9.90
2023-05-02T22:40:47.695Z,9.90
2023-05-02T22:43:15.938Z,9.70
2023-05-02T22:45:43.460Z,9.60
2023-05-02T22:48:11.960Z,9.80
2023-05-02T22:50:39.687Z,9.80
2023-05-02T22:53:09.676Z,9.80
2023-05-02T22:55:38.751Z,9.60
2023-05-02T22:58:06.369Z,9.50
2023-05-02T23:00:34.067Z,9.50
2023-05-02T23:03:02.948Z,9.50
2023-05-02T23:05:30.471Z,9.50
2023-05-02T23:07:58.256Z,9.60
2023-05-02T23:10:25.763Z,9.50
2023-05-02T23:12:53.434Z,9.60
2023-05-02T23:15:21.049Z,9.50
2023-05-02T23:17:49.365Z,9.40
2023-05-02T23:20:19.948Z,9.30
2023-05-02T23:22:47.457Z,9.40
2023-05-02T23:25:15.656Z,9.30
2023-05-02T23:27:43.474Z,9.30
2023-05-02T23:30:11.836Z,9.10
2023-05-02T23:32:39.683Z,9.20
2023-05-02T23:35:07.898Z,9.00
2023-05-02T23:37:35.688Z,9.00
2023-05-02T23:40:03.747Z,9.00
2023-05-02T23:42:34.694Z,8.90
2023-05-02T23:45:02.444Z,8.90
2023-05-02T23:47:32.288Z,8.80
2023-05-02T23:50:00.446Z,8.90
2023-05-02T23:52:28.453Z,8.80
2023-05-02T23:54:56.017Z,8.80
2023-05-02T23:57:23.899Z,8.70
2023-05-02T23:59:51.793Z,8.80
